Time;durP1;ratioP1;P1;durP2;ratioP2;P2;SDS_P1;SDS_P2;PMS_P1;PMS_P2;Temp;Humidity;BMP_temperature;BMP_pressure;BME280_temperature;BME280_humidity;BME280_pressure;Samples;Min_cycle;Max_cycle;Signal;HPM_P1;HPM_P2
2022/03/06 00:00:40;;;;;;;11.02;8.27;;;-2.30;90.90;;;;;;5069274;28;20585;-75
2022/03/06 00:03:09;;;;;;;13.88;8.23;;;-2.30;91.30;;;;;;5069073;28;20407;-75
2022/03/06 00:05:36;;;;;;;12.93;8.23;;;-2.40;91.20;;;;;;5068923;28;20514;-74
2022/03/06 00:08:03;;;;;;;14.95;8.20;;;-2.40;91.50;;;;;;5067939;28;20201;-75
2022/03/06 00:10:30;;;;;;;18.35;9.52;;;-2.40;91.70;;;;;;5068621;28;20268;-75
2022/03/06 00:12:57;;;;;;;16.42;8.95;;;-2.50;91.70;;;;;;5067970;28;20222;-75
2022/03/06 00:15:26;;;;;;;12.88;7.85;;;-2.40;91.40;;;;;;5068648;28;20234;-75
2022/03/06 00:17:53;;;;;;;13.05;8.10;;;-2.40;91.60;;;;;;5067791;28;20203;-75
2022/03/06 00:20:21;;;;;;;12.93;8.18;;;-2.50;91.60;;;;;;5068296;28;20211;-75
2022/03/06 00:22:48;;;;;;;12.30;8.07;;;-2.50;91.60;;;;;;5068293;28;20196;-75
2022/03/06 00:25:15;;;;;;;13.13;8.15;;;-2.50;91.80;;;;;;5067680;28;20224;-76
2022/03/06 00:27:41;;;;;;;14.80;8.60;;;-2.50;92.00;;;;;;5067796;28;20572;-76
2022/03/06 00:30:08;;;;;;;12.35;8.63;;;-2.50;92.40;;;;;;5067812;28;20204;-75
2022/03/06 00:32:35;;;;;;;15.38;8.65;;;-2.40;92.20;;;;;;5068144;28;20208;-74
2022/03/06 00:35:02;;;;;;;15.60;8.18;;;-2.50;92.00;;;;;;5067788;28;20534;-75
2022/03/06 00:37:31;;;;;;;12.68;8.45;;;-2.50;92.00;;;;;;5067228;28;20576;-75
2022/03/06 00:39:58;;;;;;;12.40;8.48;;;-2.50;92.00;;;;;;5067819;28;20211;-74
2022/03/06 00:42:24;;;;;;;14.60;8.48;;;-2.50;92.10;;;;;;5067743;28;20200;-75
2022/03/06 00:44:52;;;;;;;12.10;8.23;;;-2.60;92.20;;;;;;5067344;28;20220;-73
2022/03/06 00:47:19;;;;;;;15.80;9.40;;;-2.60;92.30;;;;;;5067713;28;20204;-76
2022/03/06 00:49:45;;;;;;;12.50;8.50;;;-2.70;92.40;;;;;;5068153;28;20719;-75
2022/03/06 00:52:13;;;;;;;15.60;9.95;;;-2.70;92.40;;;;;;5067632;28;20328;-75
2022/03/06 00:54:41;;;;;;;10.93;7.70;;;-2.70;92.30;;;;;;5067776;28;20606;-75
2022/03/06 00:57:08;;;;;;;13.20;8.25;;;-2.70;92.10;;;;;;5066876;28;20223;-76
2022/03/06 00:59:35;;;;;;;15.73;9.80;;;-2.70;92.00;;;;;;5067522;28;20208;-75
2022/03/06 01:02:03;;;;;;;13.80;8.88;;;-2.70;92.00;;;;;;5067363;28;20197;-76
2022/03/06 01:04:30;;;;;;;11.63;8.23;;;-2.70;91.90;;;;;;5067743;28;20220;-76
2022/03/06 01:06:57;;;;;;;12.98;8.52;;;-2.70;91.90;;;;;;5066971;28;20211;-76
2022/03/06 01:09:24;;;;;;;13.85;9.07;;;-2.70;92.00;;;;;;5068214;28;20207;-76
2022/03/06 01:11:52;;;;;;;18.52;10.00;;;-2.70;92.10;;;;;;5067332;28;20205;-75
2022/03/06 01:14:19;;;;;;;12.63;8.57;;;-2.80;92.20;;;;;;5067835;28;20320;-76
2022/03/06 01:16:46;;;;;;;14.93;9.38;;;-2.80;92.60;;;;;;5061380;28;20215;-74
2022/03/06 01:19:13;;;;;;;16.27;9.50;;;-2.80;92.60;;;;;;5066824;28;20204;-76
2022/03/06 01:21:40;;;;;;;13.73;9.40;;;-2.80;92.60;;;;;;5068410;28;20421;-74
2022/03/06 01:24:07;;;;;;;12.73;8.80;;;-2.80;93.00;;;;;;5066927;28;20225;-73
2022/03/06 01:26:34;;;;;;;13.70;8.65;;;-2.90;92.80;;;;;;5066595;28;20274;-73
2022/03/06 01:29:02;;;;;;;12.57;8.27;;;-2.90;92.80;;;;;;5066347;28;20211;-74
2022/03/06 01:31:29;;;;;;;17.60;9.85;;;-2.80;92.90;;;;;;5065610;28;20223;-74
2022/03/06 01:33:56;;;;;;;15.45;9.00;;;-2.80;92.80;;;;;;5061402;28;20228;-76
2022/03/06 01:36:22;;;;;;;14.82;9.10;;;-2.90;92.90;;;;;;5066680;28;20215;-76
2022/03/06 01:38:49;;;;;;;14.90;8.98;;;-2.90;92.90;;;;;;5065922;28;20622;-74
2022/03/06 01:41:16;;;;;;;17.02;8.93;;;-2.90;92.80;;;;;;5066604;28;20204;-75
2022/03/06 01:43:43;;;;;;;11.25;7.80;;;-2.90;93.00;;;;;;5066643;28;20224;-75
2022/03/06 01:46:12;;;;;;;17.77;9.15;;;-3.00;93.30;;;;;;5067100;28;20208;-74
2022/03/06 01:48:39;;;;;;;13.43;8.25;;;-3.00;93.50;;;;;;5066234;28;20196;-75
2022/03/06 01:51:06;;;;;;;14.50;9.73;;;-3.00;93.50;;;;;;5065996;28;20678;-74
2022/03/06 01:53:33;;;;;;;15.75;9.18;;;-3.00;93.60;;;;;;5066061;28;20231;-76
2022/03/06 01:56:00;;;;;;;14.50;8.75;;;-3.00;93.60;;;;;;5066079;28;20243;-74
2022/03/06 01:58:27;;;;;;;16.52;8.50;;;-3.00;93.50;;;;;;5065194;28;20204;-74
2022/03/06 02:00:53;;;;;;;16.80;9.57;;;-3.00;93.50;;;;;;5065571;28;20208;-75
2022/03/06 02:03:21;;;;;;;15.18;9.23;;;-3.00;93.50;;;;;;5066232;28;20212;-75
2022/03/06 02:05:49;;;;;;;15.70;8.48;;;-3.00;93.70;;;;;;5070509;28;20564;-76
2022/03/06 02:08:16;;;;;;;12.27;8.43;;;-3.00;93.80;;;;;;5069670;28;20352;-76
2022/03/06 02:10:43;;;;;;;15.50;9.23;;;-3.10;93.80;;;;;;5069889;28;20219;-74
2022/03/06 02:13:10;;;;;;;13.48;8.80;;;-3.10;93.80;;;;;;5069309;28;20581;-75
2022/03/06 02:15:37;;;;;;;15.90;9.18;;;-3.10;93.90;;;;;;5069633;28;20228;-74
2022/03/06 02:18:04;;;;;;;13.32;8.52;;;-3.10;94.00;;;;;;5068719;28;20223;-74
2022/03/06 02:20:33;;;;;;;13.10;7.80;;;-3.10;93.90;;;;;;5069836;28;20232;-74
2022/03/06 02:23:02;;;;;;;11.15;8.30;;;-3.10;93.90;;;;;;5069311;28;20741;-75
2022/03/06 02:25:31;;;;;;;13.48;8.38;;;-3.20;94.00;;;;;;5069429;28;20228;-75
2022/03/06 02:28:00;;;;;;;11.77;8.10;;;-3.20;94.20;;;;;;5068714;28;20549;-74
2022/03/06 02:30:30;;;;;;;13.48;8.60;;;-3.20;94.20;;;;;;5069719;28;20216;-74
2022/03/06 02:32:58;;;;;;;16.10;8.80;;;-3.20;94.20;;;;;;5076454;28;20208;-73
2022/03/06 02:35:25;;;;;;;13.63;9.00;;;-3.10;94.40;;;;;;5084146;28;20240;-72
2022/03/06 02:37:52;;;;;;;16.75;8.93;;;-3.20;94.40;;;;;;5084635;28;20212;-71
2022/03/06 02:40:21;;;;;;;18.55;9.05;;;-3.20;94.40;;;;;;5084587;28;20200;-74
2022/03/06 02:42:49;;;;;;;14.82;9.13;;;-3.20;94.50;;;;;;5084061;28;20204;-73
2022/03/06 02:45:18;;;;;;;14.85;8.65;;;-3.20;94.60;;;;;;5077349;28;20316;-73
2022/03/06 02:47:46;;;;;;;14.98;8.60;;;-3.20;94.70;;;;;;5068526;28;20280;-74
2022/03/06 02:50:15;;;;;;;17.23;9.30;;;-3.20;94.80;;;;;;5069043;28;20201;-74
2022/03/06 02:52:42;;;;;;;17.92;10.05;;;-3.20;94.80;;;;;;5069606;28;20211;-74
2022/03/06 02:55:10;;;;;;;15.02;9.10;;;-3.20;94.90;;;;;;5069397;28;20604;-73
2022/03/06 02:57:38;;;;;;;17.73;9.48;;;-3.30;95.00;;;;;;5068525;28;20211;-74
2022/03/06 03:00:08;;;;;;;12.20;8.35;;;-3.30;94.90;;;;;;5068800;28;20204;-74
2022/03/06 03:02:35;;;;;;;14.43;8.85;;;-3.30;95.10;;;;;;5069381;28;20204;-74
2022/03/06 03:05:02;;;;;;;14.02;8.93;;;-3.30;95.10;;;;;;5068394;28;20223;-73
2022/03/06 03:07:29;;;;;;;15.45;9.00;;;-3.30;95.20;;;;;;5068011;28;20204;-74
2022/03/06 03:09:56;;;;;;;17.17;9.60;;;-3.30;95.20;;;;;;5071469;28;20196;-74
2022/03/06 03:12:23;;;;;;;16.35;9.07;;;-3.30;95.10;;;;;;5089064;28;20200;-74
2022/03/06 03:14:51;;;;;;;16.45;9.55;;;-3.30;95.60;;;;;;5088995;28;20260;-75
2022/03/06 03:17:18;;;;;;;15.07;8.50;;;-3.40;95.20;;;;;;5088065;28;20207;-75
2022/03/06 03:19:44;;;;;;;19.67;9.30;;;-3.40;95.50;;;;;;5088685;28;20586;-74
2022/03/06 03:22:11;;;;;;;16.73;9.25;;;-3.40;95.20;;;;;;5088279;28;20625;-73
2022/03/06 03:24:38;;;;;;;14.50;8.80;;;-3.40;95.30;;;;;;5088811;28;20230;-75
2022/03/06 03:27:05;;;;;;;11.95;8.35;;;-3.40;95.40;;;;;;5087999;28;20212;-73
2022/03/06 03:29:31;;;;;;;15.68;9.18;;;-3.40;95.40;;;;;;5088593;28;20200;-75
2022/03/06 03:31:59;;;;;;;15.52;8.80;;;-3.40;95.60;;;;;;5088782;28;20204;-75
2022/03/06 03:34:26;;;;;;;15.20;9.15;;;-3.50;95.60;;;;;;5088365;28;20232;-75
2022/03/06 03:36:53;;;;;;;13.45;7.78;;;-3.50;95.60;;;;;;5147163;22;20718;-74
2022/03/06 03:39:20;;;;;;;13.52;8.57;;;-3.50;95.70;;;;;;5089003;28;20599;-74
2022/03/06 03:41:46;;;;;;;15.75;8.90;;;-3.50;95.70;;;;;;5092383;28;20208;-74
2022/03/06 03:44:13;;;;;;;12.23;8.20;;;-3.60;95.90;;;;;;5092509;28;20592;-74
2022/03/06 03:46:40;;;;;;;13.38;8.13;;;-3.50;95.90;;;;;;5091808;28;20587;-74
2022/03/06 03:49:08;;;;;;;13.73;8.85;;;-3.60;95.90;;;;;;5092649;28;20207;-74
2022/03/06 03:51:35;;;;;;;18.35;9.52;;;-3.60;96.20;;;;;;5091948;28;20895;-74
2022/03/06 03:54:01;;;;;;;12.77;8.55;;;-3.60;96.20;;;;;;5092364;28;20227;-74
2022/03/06 03:56:28;;;;;;;12.70;8.20;;;-3.70;96.20;;;;;;5091713;28;20774;-74
2022/03/06 03:58:55;;;;;;;13.07;8.45;;;-3.70;96.20;;;;;;5091504;28;20206;-74
2022/03/06 04:01:21;;;;;;;15.77;8.82;;;-3.60;96.30;;;;;;5092373;28;20604;-74
2022/03/06 04:03:55;;;;;;;11.73;8.55;;;-3.70;96.30;;;;;;5097368;28;20224;-74
2022/03/06 04:06:24;;;;;;;15.38;9.30;;;-3.70;96.40;;;;;;5090939;28;20233;-74
2022/03/06 04:08:51;;;;;;;14.23;8.73;;;-3.70;96.50;;;;;;5091884;28;20208;-74
2022/03/06 04:11:18;;;;;;;14.00;8.93;;;-3.70;96.50;;;;;;5091718;28;20582;-74
2022/03/06 04:13:45;;;;;;;15.20;8.68;;;-3.80;96.60;;;;;;5092024;28;20248;-74
2022/03/06 04:16:12;;;;;;;15.95;9.68;;;-3.80;96.70;;;;;;5091673;28;20200;-74
2022/03/06 04:18:38;;;;;;;12.25;8.60;;;-3.80;96.90;;;;;;5091370;28;20659;-74
2022/03/06 04:21:05;;;;;;;14.85;8.85;;;-3.80;97.00;;;;;;5091634;28;20196;-74
2022/03/06 04:23:33;;;;;;;19.17;9.50;;;-3.80;96.80;;;;;;5091603;28;20204;-74
2022/03/06 04:26:00;;;;;;;16.30;8.98;;;-3.80;96.80;;;;;;5091885;28;20200;-74
2022/03/06 04:28:27;;;;;;;13.38;8.40;;;-3.80;96.90;;;;;;5090831;28;20207;-74
2022/03/06 04:30:53;;;;;;;17.38;9.35;;;-3.80;96.90;;;;;;5091830;28;20228;-74
2022/03/06 04:33:20;;;;;;;15.00;9.43;;;-3.90;97.00;;;;;;5091036;28;20199;-74
2022/03/06 04:35:47;;;;;;;16.48;8.10;;;-3.80;97.00;;;;;;5091485;28;20329;-74
2022/03/06 04:38:13;;;;;;;14.80;8.27;;;-3.90;97.10;;;;;;5090823;28;20212;-74
2022/03/06 04:40:41;;;;;;;14.90;9.23;;;-4.00;97.30;;;;;;5091207;28;20196;-74
2022/03/06 04:43:08;;;;;;;18.35;8.40;;;-4.00;97.40;;;;;;5091424;28;20204;-74
2022/03/06 04:45:35;;;;;;;14.05;8.80;;;-4.00;97.40;;;;;;5090813;28;20219;-74
2022/03/06 04:48:01;;;;;;;18.75;9.52;;;-4.00;97.40;;;;;;5091030;28;20581;-74
2022/03/06 04:50:28;;;;;;;15.40;9.00;;;-4.00;97.50;;;;;;5090766;28;20211;-75
2022/03/06 04:52:55;;;;;;;16.88;10.07;;;-4.00;97.40;;;;;;5091281;28;20208;-74
2022/03/06 04:55:22;;;;;;;14.68;8.85;;;-4.00;97.50;;;;;;5090770;28;20228;-74
2022/03/06 04:57:50;;;;;;;14.55;8.85;;;-4.00;97.50;;;;;;5090243;28;20199;-74
2022/03/06 05:00:17;;;;;;;15.65;8.57;;;-4.10;97.70;;;;;;5091182;28;20204;-74
2022/03/06 05:02:44;;;;;;;16.13;8.02;;;-4.00;97.80;;;;;;5091138;28;20222;-74
2022/03/06 05:05:11;;;;;;;14.85;8.90;;;-4.10;98.00;;;;;;5091123;28;20237;-74
2022/03/06 05:07:38;;;;;;;17.48;9.02;;;-4.10;98.20;;;;;;5090787;28;20593;-74
2022/03/06 05:10:10;;;;;;;14.00;8.70;;;-4.10;98.10;;;;;;5091111;28;20207;-74
2022/03/06 05:12:37;;;;;;;14.43;9.02;;;-4.10;98.00;;;;;;5091063;28;20204;-74
2022/03/06 05:15:08;;;;;;;16.80;9.48;;;-4.10;98.10;;;;;;5090439;28;20224;-74
2022/03/06 05:17:35;;;;;;;15.63;8.23;;;-4.10;98.20;;;;;;5090197;28;20203;-74
2022/03/06 05:20:04;;;;;;;16.23;9.55;;;-4.00;98.20;;;;;;5090829;28;20200;-74
2022/03/06 05:22:30;;;;;;;15.25;8.73;;;-4.10;98.20;;;;;;5090432;28;20670;-73
2022/03/06 05:24:58;;;;;;;12.93;8.80;;;-4.10;98.20;;;;;;5090638;28;20216;-74
2022/03/06 05:27:25;;;;;;;14.25;8.07;;;-4.20;98.30;;;;;;5089668;28;20314;-74
2022/03/06 05:29:52;;;;;;;14.77;8.75;;;-4.20;98.30;;;;;;5090917;28;20204;-74
2022/03/06 05:32:20;;;;;;;12.70;8.05;;;-4.20;98.40;;;;;;5090311;28;20200;-74
2022/03/06 05:34:47;;;;;;;16.38;9.38;;;-4.20;98.50;;;;;;5090579;28;20224;-74
2022/03/06 05:37:13;;;;;;;15.05;9.45;;;-4.20;98.50;;;;;;5089860;28;20207;-74
2022/03/06 05:39:40;;;;;;;16.48;8.85;;;-4.20;98.60;;;;;;5089774;28;20204;-74
2022/03/06 05:42:07;;;;;;;14.95;9.45;;;-4.10;98.60;;;;;;5090496;28;20203;-74
2022/03/06 05:44:34;;;;;;;14.68;9.02;;;-4.20;98.60;;;;;;5090026;28;20721;-74
2022/03/06 05:47:01;;;;;;;12.25;8.15;;;-4.20;98.80;;;;;;5089938;28;20595;-74
2022/03/06 05:49:29;;;;;;;15.98;8.38;;;-4.10;98.90;;;;;;5089904;28;20195;-74
2022/03/06 05:51:55;;;;;;;15.23;8.35;;;-4.10;99.10;;;;;;5088449;28;20640;-74
2022/03/06 05:54:22;;;;;;;14.68;8.13;;;-4.10;99.10;;;;;;5090113;28;20223;-74
2022/03/06 05:56:49;;;;;;;16.25;9.30;;;-4.10;99.20;;;;;;5089475;28;20203;-74
2022/03/06 05:59:16;;;;;;;15.80;8.27;;;-4.10;99.50;;;;;;5090360;28;20214;-75
2022/03/06 06:01:42;;;;;;;13.77;8.20;;;-4.00;99.50;;;;;;5090117;28;20604;-74
2022/03/06 06:04:09;;;;;;;14.43;9.40;;;-4.00;99.60;;;;;;5090214;28;20576;-74
2022/03/06 06:06:37;;;;;;;16.58;9.63;;;-4.00;99.50;;;;;;5089896;28;20203;-74
2022/03/06 06:09:04;;;;;;;14.27;9.10;;;-4.00;99.50;;;;;;5089903;28;20200;-74
2022/03/06 06:11:30;;;;;;;15.95;10.10;;;-4.00;99.50;;;;;;5090337;28;20218;-75
2022/03/06 06:13:57;;;;;;;17.60;9.40;;;-4.00;99.40;;;;;;5089817;28;20219;-74
2022/03/06 06:16:24;;;;;;;15.05;8.75;;;-3.90;99.40;;;;;;5089971;28;20239;-74
2022/03/06 06:18:51;;;;;;;12.90;8.60;;;-3.90;99.40;;;;;;5089554;28;20196;-74
2022/03/06 06:21:19;;;;;;;15.88;9.10;;;-3.90;99.30;;;;;;5089904;28;20235;-75
2022/03/06 06:23:47;;;;;;;13.70;9.27;;;-3.80;99.20;;;;;;5090058;28;20227;-74
2022/03/06 06:26:14;;;;;;;18.65;9.85;;;-3.80;99.30;;;;;;5089535;28;20200;-74
2022/03/06 06:28:41;;;;;;;13.30;8.80;;;-3.80;99.30;;;;;;5089538;28;20699;-74
2022/03/06 06:31:08;;;;;;;18.17;9.13;;;-3.80;99.40;;;;;;5089861;28;20212;-74
2022/03/06 06:33:35;;;;;;;14.98;8.77;;;-3.70;99.40;;;;;;5089899;28;20250;-74
2022/03/06 06:36:02;;;;;;;21.27;9.70;;;-3.70;99.40;;;;;;5089809;28;20231;-74
2022/03/06 06:38:29;;;;;;;16.33;9.80;;;-3.60;99.40;;;;;;5088776;28;20196;-74
2022/03/06 06:40:57;;;;;;;17.02;10.00;;;-3.60;99.30;;;;;;5090007;28;20211;-74
2022/03/06 06:43:24;;;;;;;13.93;8.75;;;-3.50;99.30;;;;;;5089289;28;20291;-74
2022/03/06 06:45:51;;;;;;;14.35;8.40;;;-3.50;99.30;;;;;;5090009;28;20831;-74
2022/03/06 06:48:18;;;;;;;15.02;10.00;;;-3.40;99.40;;;;;;5089244;28;20673;-74
2022/03/06 06:50:44;;;;;;;15.48;8.70;;;-3.30;99.40;;;;;;5090114;28;20200;-74
2022/03/06 06:53:11;;;;;;;15.00;9.65;;;-3.20;99.30;;;;;;5093289;28;20203;-74
2022/03/06 06:55:38;;;;;;;15.30;9.10;;;-3.00;99.20;;;;;;5092894;28;20227;-74
2022/03/06 06:58:06;;;;;;;18.45;9.30;;;-3.00;99.10;;;;;;5092747;28;20200;-74
2022/03/06 07:00:34;;;;;;;17.75;9.50;;;-2.90;99.00;;;;;;5093193;28;20202;-74
2022/03/06 07:03:00;;;;;;;14.40;8.80;;;-2.80;99.00;;;;;;5093096;28;20235;-75
2022/03/06 07:05:27;;;;;;;18.98;12.27;;;-2.70;99.00;;;;;;5092315;28;20459;-74
2022/03/06 07:07:54;;;;;;;16.35;11.10;;;-2.50;99.20;;;;;;5092336;28;20210;-75
2022/03/06 07:10:22;;;;;;;14.13;8.80;;;-1.90;99.20;;;;;;5092995;28;20199;-76
2022/03/06 07:12:53;;;;;;;16.05;8.85;;;-1.10;98.20;;;;;;5093087;28;20207;-75
2022/03/06 07:15:21;;;;;;;16.40;10.45;;;-0.40;97.20;;;;;;5093184;28;20230;-74
2022/03/06 07:17:48;;;;;;;13.95;9.25;;;0.30;95.90;;;;;;5092832;28;20207;-75
2022/03/06 07:20:15;;;;;;;12.25;9.30;;;1.00;95.10;;;;;;5097654;28;20191;-75
2022/03/06 07:22:42;;;;;;;17.55;9.38;;;1.60;94.20;;;;;;5101744;28;20191;-74
2022/03/06 07:25:09;;;;;;;14.27;9.80;;;2.20;93.30;;;;;;5100067;28;20586;-74
2022/03/06 07:27:36;;;;;;;12.13;8.73;;;2.70;93.00;;;;;;5100437;28;20682;-74
2022/03/06 07:30:03;;;;;;;13.88;10.40;;;3.20;91.90;;;;;;5100919;28;20681;-75
2022/03/06 07:32:31;;;;;;;16.40;9.77;;;3.70;91.40;;;;;;5102425;28;20626;-77
2022/03/06 07:34:58;;;;;;;11.85;9.25;;;4.40;90.50;;;;;;5101032;28;20231;-77
2022/03/06 07:37:25;;;;;;;12.45;10.05;;;5.00;89.40;;;;;;5100131;28;20218;-76
2022/03/06 07:39:51;;;;;;;15.35;10.65;;;5.60;88.50;;;;;;5102567;28;20196;-77
2022/03/06 07:42:18;;;;;;;12.70;9.80;;;6.20;87.20;;;;;;5100709;28;20912;-77
2022/03/06 07:44:45;;;;;;;12.18;10.20;;;6.70;85.90;;;;;;5101151;28;20218;-77
2022/03/06 07:47:11;;;;;;;11.50;9.32;;;7.10;84.30;;;;;;5101873;28;20188;-77
2022/03/06 07:49:40;;;;;;;12.35;9.57;;;7.40;84.20;;;;;;5100429;28;20230;-77
2022/03/06 07:52:07;;;;;;;13.45;9.95;;;7.60;82.10;;;;;;5101194;28;20549;-77
2022/03/06 07:54:34;;;;;;;15.20;10.95;;;7.80;81.10;;;;;;5102174;28;20230;-77
2022/03/06 07:57:00;;;;;;;13.23;10.75;;;8.10;81.20;;;;;;5100538;28;20239;-77
2022/03/06 07:59:28;;;;;;;13.13;9.90;;;8.20;80.90;;;;;;5100514;28;20194;-77
2022/03/06 08:01:55;;;;;;;15.20;10.90;;;8.40;80.10;;;;;;5101914;28;20199;-77
2022/03/06 08:04:21;;;;;;;14.32;9.98;;;8.70;79.80;;;;;;5091679;28;20227;-77
2022/03/06 08:06:50;;;;;;;15.07;11.25;;;8.90;79.00;;;;;;5102024;28;20274;-77
2022/03/06 08:09:17;;;;;;;14.35;11.00;;;9.20;78.80;;;;;;5108429;28;20202;-77
2022/03/06 08:11:44;;;;;;;12.35;10.57;;;9.60;77.50;;;;;;5101212;28;20200;-77
2022/03/06 08:14:10;;;;;;;14.27;10.68;;;9.90;75.70;;;;;;5089872;28;20220;-76
2022/03/06 08:16:37;;;;;;;12.75;10.38;;;9.90;76.60;;;;;;5090077;28;20216;-77
2022/03/06 08:19:04;;;;;;;13.07;10.38;;;10.20;75.20;;;;;;5109990;28;20194;-76
2022/03/06 08:21:31;;;;;;;13.07;10.98;;;10.50;73.60;;;;;;5110238;28;20198;-77
2022/03/06 08:23:59;;;;;;;13.02;10.10;;;10.70;73.50;;;;;;5108720;28;20616;-77
2022/03/06 08:26:26;;;;;;;14.35;10.02;;;10.60;71.00;;;;;;5108991;28;20195;-76
2022/03/06 08:28:53;;;;;;;16.00;12.23;;;10.20;72.80;;;;;;5109636;28;20203;-76
2022/03/06 08:31:20;;;;;;;12.80;10.85;;;10.10;72.70;;;;;;5109729;28;20198;-77
2022/03/06 08:33:47;;;;;;;12.93;10.30;;;10.50;73.40;;;;;;5110216;28;20223;-77
2022/03/06 08:36:14;;;;;;;13.88;10.45;;;10.80;71.70;;;;;;5109853;28;20238;-76
2022/03/06 08:38:40;;;;;;;12.27;9.88;;;11.00;70.40;;;;;;5109312;28;20197;-77
2022/03/06 08:41:08;;;;;;;12.32;10.68;;;10.90;70.00;;;;;;5109969;28;20261;-76
2022/03/06 08:43:35;;;;;;;13.15;10.55;;;11.00;68.90;;;;;;5109644;28;20199;-76
2022/03/06 08:46:03;;;;;;;13.65;11.38;;;11.00;69.70;;;;;;5110154;28;20665;-77
2022/03/06 08:48:29;;;;;;;11.38;9.75;;;11.00;68.40;;;;;;5108891;28;20195;-77
2022/03/06 08:50:56;;;;;;;13.07;10.60;;;10.50;68.50;;;;;;5109347;28;20194;-76
2022/03/06 08:53:23;;;;;;;14.98;10.40;;;10.30;69.60;;;;;;5109589;28;20195;-76
2022/03/06 08:55:50;;;;;;;14.27;10.25;;;10.60;69.70;;;;;;5109379;28;20223;-76
2022/03/06 08:58:18;;;;;;;14.23;10.15;;;11.10;67.90;;;;;;5107882;28;20547;-76
2022/03/06 09:00:44;;;;;;;12.48;10.00;;;11.30;67.70;;;;;;5100449;28;20202;-76
2022/03/06 09:03:11;;;;;;;12.10;9.70;;;11.50;67.70;;;;;;5088938;28;20200;-77
2022/03/06 09:05:40;;;;;;;14.48;10.50;;;11.50;64.90;;;;;;5089283;28;20581;-77
2022/03/06 09:08:07;;;;;;;13.68;10.07;;;11.50;66.30;;;;;;5088131;28;20196;-76
2022/03/06 09:10:35;;;;;;;12.23;10.20;;;12.00;66.40;;;;;;5089031;28;20202;-76
2022/03/06 09:13:01;;;;;;;12.00;9.50;;;12.00;65.70;;;;;;5108237;28;20256;-76
2022/03/06 09:15:30;;;;;;;10.95;9.13;;;11.50;64.70;;;;;;5108102;28;20222;-76
2022/03/06 09:17:56;;;;;;;9.93;8.48;;;10.80;65.70;;;;;;5108773;28;20195;-75
2022/03/06 09:20:23;;;;;;;11.10;8.57;;;11.50;65.30;;;;;;5108783;28;20191;-76
2022/03/06 09:22:50;;;;;;;11.20;9.20;;;11.80;62.30;;;;;;5109355;28;20281;-76
2022/03/06 09:25:17;;;;;;;13.85;9.25;;;11.10;63.70;;;;;;5108883;28;20226;-76
2022/03/06 09:27:44;;;;;;;12.98;9.40;;;11.40;64.90;;;;;;5108284;28;20191;-77
2022/03/06 09:30:12;;;;;;;12.07;8.93;;;12.00;64.10;;;;;;5109471;28;20630;-76
2022/03/06 09:32:41;;;;;;;11.52;9.60;;;12.40;60.60;;;;;;5109554;28;20576;-76
2022/03/06 09:35:09;;;;;;;11.85;9.65;;;12.10;61.70;;;;;;5108908;28;20211;-76
2022/03/06 09:40:45;;;;;;;11.85;8.23;;;12.30;60.80;;;;;;5053430;28;20657;-93
2022/03/06 09:43:29;;;;;;;11.88;9.43;;;11.90;61.90;;;;;;5045544;27;20193;-94
2022/03/06 09:48:55;;;;;;;11.43;8.60;;;11.60;61.00;;;;;;4984174;28;20239;-74
2022/03/06 09:51:22;;;;;;;11.90;9.63;;;11.50;62.20;;;;;;4986705;28;20574;-73
2022/03/06 09:53:49;;;;;;;12.85;10.18;;;12.10;62.10;;;;;;5012622;28;20219;-74
2022/03/06 09:56:16;;;;;;;12.45;8.85;;;12.80;60.90;;;;;;5080092;28;20208;-75
2022/03/06 09:58:43;;;;;;;12.60;10.23;;;14.20;60.70;;;;;;5074402;28;20216;-75
2022/03/06 10:01:09;;;;;;;12.67;9.23;;;15.30;58.40;;;;;;5078336;28;20460;-75
2022/03/06 10:03:36;;;;;;;13.27;10.17;;;15.70;58.40;;;;;;5076844;28;20477;-75
2022/03/06 10:06:07;;;;;;;11.93;10.33;;;16.20;57.70;;;;;;5077677;28;20517;-73
2022/03/06 10:08:34;;;;;;;11.13;9.60;;;16.40;57.00;;;;;;5074242;28;20472;-74
2022/03/06 10:11:03;;;;;;;11.60;10.33;;;16.10;56.40;;;;;;5079644;28;20543;-74
2022/03/06 10:13:31;;;;;;;10.60;9.40;;;16.40;57.50;;;;;;5077173;28;20484;-73
2022/03/06 10:16:10;;;;;;;11.63;9.60;;;16.90;57.10;;;;;;5080475;28;20881;-73
2022/03/06 10:18:39;;;;;;;11.37;9.67;;;17.50;56.10;;;;;;5076949;28;20836;-74
2022/03/06 10:21:19;;;;;;;11.83;10.00;;;18.10;55.10;;;;;;5083174;28;20496;-73
2022/03/06 10:23:48;;;;;;;12.10;10.10;;;18.90;53.40;;;;;;5088555;28;20505;-74
2022/03/06 10:26:17;;;;;;;10.50;9.30;;;19.30;54.50;;;;;;5092914;28;20832;-74
2022/03/06 10:28:45;;;;;;;10.63;9.50;;;19.10;54.10;;;;;;5092380;28;20449;-74
2022/03/06 10:31:13;;;;;;;11.80;9.80;;;19.20;54.90;;;;;;5093751;28;20508;-74
2022/03/06 10:33:40;;;;;;;9.87;8.77;;;20.00;52.50;;;;;;5092161;28;20476;-74
2022/03/06 10:36:09;;;;;;;11.03;9.70;;;20.70;52.10;;;;;;5093015;28;20477;-74
2022/03/06 10:38:37;;;;;;;10.60;9.10;;;20.00;52.20;;;;;;5091914;28;20519;-74
2022/03/06 10:41:12;;;;;;;10.83;9.73;;;19.80;51.30;;;;;;5092276;28;20457;-74
2022/03/06 10:43:40;;;;;;;12.57;10.47;;;19.10;51.30;;;;;;5092380;28;20508;-74
2022/03/06 10:46:10;;;;;;;13.10;10.00;;;17.00;52.90;;;;;;5092447;28;20500;-74
2022/03/06 10:48:39;;;;;;;11.80;10.30;;;15.00;54.70;;;;;;5092192;28;20461;-74
2022/03/06 10:51:09;;;;;;;10.10;9.10;;;13.00;57.10;;;;;;5093464;28;20457;-73
2022/03/06 10:53:38;;;;;;;11.47;10.00;;;11.30;58.20;;;;;;5092055;28;20465;-74
2022/03/06 10:56:09;;;;;;;12.97;10.27;;;10.50;59.70;;;;;;5092397;28;20489;-73
2022/03/06 10:58:39;;;;;;;12.25;9.77;;;9.50;62.30;;;;;;5090889;28;20458;-73
2022/03/06 11:01:05;;;;;;;13.02;9.07;;;9.10;63.90;;;;;;5091981;28;20196;-73
2022/03/06 11:03:34;;;;;;;11.18;9.25;;;8.90;63.60;;;;;;5080327;28;20660;-72
2022/03/06 11:06:02;;;;;;;15.18;9.82;;;8.90;63.90;;;;;;5085765;28;20628;-73
2022/03/06 11:08:28;;;;;;;10.43;8.70;;;8.50;64.10;;;;;;5091206;28;20191;-73
2022/03/06 11:10:57;;;;;;;11.60;9.13;;;8.20;64.60;;;;;;5091297;28;20207;-72
2022/03/06 11:13:25;;;;;;;12.32;9.00;;;7.90;64.90;;;;;;5092346;28;20283;-73
2022/03/06 11:15:52;;;;;;;10.80;8.32;;;7.70;65.70;;;;;;5091384;28;20253;-72
2022/03/06 11:18:21;;;;;;;10.82;9.27;;;7.70;65.20;;;;;;5091051;28;20253;-74
2022/03/06 11:20:49;;;;;;;11.50;9.13;;;7.90;65.80;;;;;;5091088;28;20265;-72
2022/03/06 11:23:34;;;;;;;11.70;8.75;;;8.30;66.30;;;;;;5090383;28;20192;-75
2022/03/06 11:26:33;;;;;;;10.60;9.38;;;8.60;65.60;;;;;;5090424;28;20198;-74
2022/03/06 11:29:14;;;;;;;11.27;8.95;;;8.80;65.20;;;;;;5001818;28;20275;-73
2022/03/06 11:31:45;;;;;;;12.95;9.93;;;8.30;64.90;;;;;;5089945;28;20203;-75
2022/03/06 11:34:13;;;;;;;10.98;9.07;;;7.90;66.10;;;;;;5089534;28;20211;-75
2022/03/06 11:36:48;;;;;;;12.48;8.93;;;7.40;66.40;;;;;;5088306;28;20211;-72
2022/03/06 11:39:45;;;;;;;11.60;9.00;;;7.20;67.30;;;;;;5090405;28;20414;-73
2022/03/06 11:42:52;;;;;;;12.32;9.13;;;6.80;67.40;;;;;;5085315;28;20288;-73
2022/03/06 11:45:45;;;;;;;12.20;8.50;;;6.70;67.80;;;;;;5090443;28;20207;-73
2022/03/06 11:48:23;;;;;;;11.05;8.85;;;6.70;68.10;;;;;;5089397;28;20270;-74
2022/03/06 11:51:18;;;;;;;13.65;8.43;;;6.90;67.90;;;;;;5090793;28;20935;-72
2022/03/06 11:53:53;;;;;;;12.10;8.65;;;6.80;68.10;;;;;;5088967;28;20561;-73
2022/03/06 11:56:59;;;;;;;10.48;8.65;;;6.70;67.90;;;;;;5090178;28;20211;-73
2022/03/06 11:59:32;;;;;;;9.13;8.15;;;6.90;68.40;;;;;;5081932;28;20202;-73
2022/03/06 12:02:03;;;;;;;11.35;8.65;;;7.40;67.00;;;;;;5085372;28;20195;-73
2022/03/06 12:04:32;;;;;;;9.98;7.82;;;7.70;66.20;;;;;;5089166;28;20220;-75
2022/03/06 12:07:01;;;;;;;11.32;9.02;;;8.10;67.10;;;;;;5090385;28;20418;-73
2022/03/06 12:09:29;;;;;;;11.50;9.77;;;8.50;65.30;;;;;;5090962;28;20453;-74
2022/03/06 12:11:58;;;;;;;11.50;8.82;;;8.80;64.60;;;;;;5090927;28;20462;-74
2022/03/06 12:14:30;;;;;;;9.57;8.13;;;9.00;63.70;;;;;;5090723;28;20722;-72
2022/03/06 12:17:19;;;;;;;12.50;8.70;;;8.80;63.20;;;;;;5092518;28;20599;-72
2022/03/06 12:20:30;;;;;;;12.57;8.40;;;10.10;61.90;;;;;;5090845;28;20207;-72
2022/03/06 12:23:06;;;;;;;11.52;8.18;;;12.40;59.00;;;;;;5083976;28;21437;-74
2022/03/06 12:25:35;;;;;;;13.82;8.40;;;14.40;56.80;;;;;;5050727;28;20221;-74
2022/03/06 12:28:26;;;;;;;9.88;8.38;;;15.90;53.80;;;;;;5050701;28;20200;-73
2022/03/06 12:30:55;;;;;;;9.13;8.00;;;16.60;52.50;;;;;;5084390;28;20648;-72
2022/03/06 12:33:45;;;;;;;9.43;8.33;;;16.40;52.20;;;;;;5087682;28;20477;-73
2022/03/06 12:36:23;;;;;;;9.23;8.33;;;16.10;52.10;;;;;;5089010;28;20851;-74
2022/03/06 12:39:13;;;;;;;8.63;7.80;;;15.20;52.50;;;;;;5087576;28;20506;-74
2022/03/06 12:41:45;;;;;;;9.43;8.30;;;14.20;54.40;;;;;;5088566;28;20461;-74
2022/03/06 12:44:23;;;;;;;8.93;7.97;;;12.80;55.00;;;;;;5089322;28;20480;-74
2022/03/06 12:46:51;;;;;;;9.43;7.70;;;12.50;56.40;;;;;;5088134;28;20476;-74
2022/03/06 12:49:20;;;;;;;9.87;8.57;;;12.60;56.90;;;;;;5088242;28;20919;-73
2022/03/06 12:51:48;;;;;;;9.60;7.93;;;13.70;56.60;;;;;;5088381;28;20462;-75